Aérodrome :







RETROUVEZ-NOUS SUR...

 
LOGIN :

S'inscrire | Disclaimer

   EN    FR    IT 

 









Légende :    VFR   VFR Marginal   IFR   IFR Intensif   IFR Très Intensif
Visi : 
Plafond : 
>= 8 km
>= 3000ft
5 à 8 km
1000 à 3000 ft
1500m à 5 km
500 à 1000 ft
800 à 1500m
200 à 500 ft
< 800m
< 200 ft
Symboles :   Orages  Brouillard  Fortes neiges  Fortes précipitations  Vent > 20 kt






- Altitude de l'aérodrome : 56 ft


KRKD - Knox County Regional

DERNIER METAR :
  • 290716Z AUTO 28004KT 10SM CLR M01/M01 A2997 RMK AO2 FZRANO

METARs EXPIRÉS :
  • 290656Z AUTO 27003KT 2SM BR FEW075 M01/M01 A2996 RMK AO2 VIS 3/4V5 SLP145 T10061006 FZRANO
  • 290556Z AUTO 28006KT 10SM CLR 01/01 A2994 RMK AO2 SLP140 T00110006 10033 21006 53006 FZRANO
  • 290456Z AUTO 28004KT 10SM CLR 00/00 A2993 RMK AO2 SLP135 T00000000 400671006 FZRANO

TAF KRKD
Valide du 29 à 06h jusqu'au 30 à 06h UTC


290523Z 2906/3006 27005KT P6SM FEW250
FM292300 VRB03KT P6SM SCT250
FIR KZBW / Amérique du Nord



MET'MAP, la Météo Aéronautique d'un coup d'oeil ! - Copyright ORBIFLY Décembre 2007 - Disclaimer

ORBIFLY MET'MAP TEAM :

Programmation & Développement : Alexandra Zaïnal
Sur une idée originale de : Baudouin d'Aumeries
Assistance à la programmation : Marc-Olivier Méhu
Soutien technique & logistique : Manuel Goepfert

Contact : metmap@orbifly.com




SOURCES & CREDITS :

   NOAA